Time;durP1;ratioP1;P1;durP2;ratioP2;P2;SDS_P1;SDS_P2;PMS_P1;PMS_P2;Temp;Humidity;BMP_temperature;BMP_pressure;BME280_temperature;BME280_humidity;BME280_pressure;Samples;Min_cycle;Max_cycle;Signal;HPM_P1;HPM_P2
2023/12/21 00:02:19;;;;;;;5.50;4.40;;;;;;;;;;5068915;28;20510;-68
2023/12/21 00:04:46;;;;;;;4.27;3.70;;;;;;;;;;5068611;28;21023;-69
2023/12/21 00:07:12;;;;;;;5.10;3.80;;;;;;;;;;5071067;28;20475;-67
2023/12/21 00:09:39;;;;;;;4.77;4.27;;;;;;;;;;5068249;28;20559;-68
2023/12/21 00:12:06;;;;;;;4.80;3.53;;;;;;;;;;5066247;28;20988;-68
2023/12/21 00:14:32;;;;;;;4.37;3.70;;;;;;;;;;5070308;28;20448;-69
2023/12/21 00:16:58;;;;;;;4.90;3.97;;;;;;;;;;5069847;28;20455;-69
2023/12/21 00:19:26;;;;;;;4.00;3.60;;;;;;;;;;5070205;28;20930;-69
2023/12/21 00:21:53;;;;;;;5.60;3.43;;;;;;;;;;5071788;28;20487;-66
2023/12/21 00:24:19;;;;;;;3.83;3.53;;;;;;;;;;5070736;28;20444;-66
2023/12/21 00:26:45;;;;;;;3.57;3.10;;;;;;;;;;5069496;28;20578;-71
2023/12/21 00:29:13;;;;;;;4.83;4.20;;;;;;;;;;5071663;28;20480;-71
2023/12/21 00:31:39;;;;;;;4.20;3.77;;;;;;;;;;5067216;28;20451;-70
2023/12/21 00:34:06;;;;;;;5.30;4.20;;;;;;;;;;5069536;28;20643;-73
2023/12/21 00:36:36;;;;;;;4.97;3.53;;;;;;;;;;5073792;28;20512;-71
2023/12/21 00:39:03;;;;;;;5.13;3.60;;;;;;;;;;5073429;28;20489;-72
2023/12/21 00:41:29;;;;;;;4.30;3.47;;;;;;;;;;5072948;28;21051;-71
2023/12/21 00:43:55;;;;;;;4.47;3.37;;;;;;;;;;5067879;28;20575;-71
2023/12/21 00:46:22;;;;;;;2.90;2.40;;;;;;;;;;5072327;28;20507;-70
2023/12/21 00:48:48;;;;;;;4.13;3.73;;;;;;;;;;5062227;28;21299;-72
2023/12/21 00:51:15;;;;;;;3.80;3.20;;;;;;;;;;5065881;28;20467;-68
2023/12/21 00:53:43;;;;;;;4.43;3.53;;;;;;;;;;5071316;28;20566;-69
2023/12/21 00:56:09;;;;;;;3.53;3.07;;;;;;;;;;5072926;28;21012;-69
2023/12/21 00:58:35;;;;;;;3.17;2.60;;;;;;;;;;5072039;28;20463;-70
2023/12/21 01:01:02;;;;;;;3.97;3.37;;;;;;;;;;5066180;28;20951;-69
2023/12/21 01:03:28;;;;;;;4.83;3.53;;;;;;;;;;5071527;28;20559;-72
2023/12/21 01:05:55;;;;;;;3.80;3.40;;;;;;;;;;5074511;28;20598;-71
2023/12/21 01:08:21;;;;;;;3.63;3.27;;;;;;;;;;5064017;28;20479;-69
2023/12/21 01:10:49;;;;;;;3.07;2.80;;;;;;;;;;5067892;28;20512;-70
2023/12/21 01:13:15;;;;;;;4.50;3.40;;;;;;;;;;5065816;28;20471;-74
2023/12/21 01:15:42;;;;;;;3.90;3.57;;;;;;;;;;5067133;28;20539;-72
2023/12/21 01:18:08;;;;;;;4.17;3.77;;;;;;;;;;5072974;28;20447;-69
2023/12/21 01:20:34;;;;;;;3.37;3.07;;;;;;;;;;5073814;28;20602;-69
2023/12/21 01:23:01;;;;;;;4.20;3.47;;;;;;;;;;5066333;28;20885;-70
2023/12/21 01:25:27;;;;;;;5.50;3.60;;;;;;;;;;5068194;28;20467;-73
2023/12/21 01:27:55;;;;;;;4.60;4.10;;;;;;;;;;5071756;28;20479;-73
2023/12/21 01:30:23;;;;;;;4.33;3.87;;;;;;;;;;5068786;28;20535;-70
2023/12/21 01:32:49;;;;;;;4.03;3.53;;;;;;;;;;5067411;28;20479;-69
2023/12/21 01:35:16;;;;;;;4.17;3.60;;;;;;;;;;5066084;28;21026;-70
2023/12/21 01:37:42;;;;;;;8.27;3.53;;;;;;;;;;5077408;28;20467;-69
2023/12/21 01:40:09;;;;;;;4.03;3.53;;;;;;;;;;5073898;28;20561;-69
2023/12/21 01:42:35;;;;;;;4.93;4.40;;;;;;;;;;5068481;28;20464;-69
2023/12/21 01:45:03;;;;;;;4.47;3.90;;;;;;;;;;5069539;28;20515;-69
2023/12/21 01:47:30;;;;;;;4.73;4.23;;;;;;;;;;5069858;28;20473;-69
2023/12/21 01:49:56;;;;;;;4.27;3.77;;;;;;;;;;5069324;28;20453;-70
2023/12/21 01:52:23;;;;;;;4.20;2.90;;;;;;;;;;5070034;28;20543;-70
2023/12/21 01:54:49;;;;;;;10.33;4.70;;;;;;;;;;5070194;28;20476;-70
2023/12/21 01:57:16;;;;;;;4.27;3.87;;;;;;;;;;5069627;28;20502;-68
2023/12/21 01:59:42;;;;;;;4.30;3.60;;;;;;;;;;5069363;28;20528;-68
2023/12/21 02:02:10;;;;;;;4.03;3.60;;;;;;;;;;5073858;28;20517;-68
2023/12/21 02:04:36;;;;;;;5.50;4.10;;;;;;;;;;5073410;28;20567;-68
2023/12/21 02:07:03;;;;;;;4.30;3.90;;;;;;;;;;5072828;28;20575;-69
2023/12/21 02:09:29;;;;;;;3.63;3.20;;;;;;;;;;5074634;28;20495;-69
2023/12/21 02:11:55;;;;;;;5.33;4.13;;;;;;;;;;5075375;28;20517;-70
2023/12/21 02:14:22;;;;;;;6.17;5.00;;;;;;;;;;5075661;28;20480;-69
2023/12/21 02:16:50;;;;;;;5.83;4.50;;;;;;;;;;5072133;28;21025;-70
2023/12/21 02:19:19;;;;;;;5.40;4.17;;;;;;;;;;5070030;28;20451;-69
2023/12/21 02:21:46;;;;;;;5.80;4.83;;;;;;;;;;5072112;28;20515;-69
2023/12/21 02:24:15;;;;;;;5.10;4.30;;;;;;;;;;5076504;28;20519;-69
2023/12/21 02:26:41;;;;;;;4.57;4.13;;;;;;;;;;5073652;28;20467;-70
2023/12/21 02:29:07;;;;;;;4.97;4.47;;;;;;;;;;5065323;28;20524;-71
2023/12/21 02:31:34;;;;;;;5.80;4.40;;;;;;;;;;5071787;28;20472;-72
2023/12/21 02:34:00;;;;;;;7.20;5.07;;;;;;;;;;5068574;28;20456;-69
2023/12/21 02:36:27;;;;;;;4.90;3.90;;;;;;;;;;5067096;28;21497;-70
2023/12/21 02:38:53;;;;;;;5.80;4.50;;;;;;;;;;5075061;28;20704;-71
2023/12/21 02:41:21;;;;;;;5.60;4.60;;;;;;;;;;5071446;28;20539;-71
2023/12/21 02:43:48;;;;;;;5.30;4.57;;;;;;;;;;5070962;28;20532;-71
2023/12/21 02:46:14;;;;;;;4.70;4.30;;;;;;;;;;5073875;28;20474;-71
2023/12/21 02:48:40;;;;;;;5.47;4.70;;;;;;;;;;5067342;28;20456;-71
2023/12/21 02:51:07;;;;;;;5.33;4.23;;;;;;;;;;5069880;28;20542;-71
2023/12/21 02:53:33;;;;;;;5.10;4.33;;;;;;;;;;5074456;28;20443;-69
2023/12/21 02:55:59;;;;;;;7.17;5.23;;;;;;;;;;5073445;28;20488;-71
2023/12/21 02:58:27;;;;;;;4.80;4.13;;;;;;;;;;5070924;28;20543;-70
2023/12/21 03:00:54;;;;;;;5.93;4.70;;;;;;;;;;5067829;28;20615;-69
2023/12/21 03:03:20;;;;;;;4.93;3.60;;;;;;;;;;5074496;28;20476;-70
2023/12/21 03:05:47;;;;;;;4.77;4.33;;;;;;;;;;5053738;28;20508;-69
2023/12/21 03:08:13;;;;;;;4.57;3.90;;;;;;;;;;5053784;28;20476;-71
2023/12/21 03:10:39;;;;;;;4.53;3.50;;;;;;;;;;5055030;28;20547;-70
2023/12/21 03:13:06;;;;;;;3.43;3.13;;;;;;;;;;5054293;28;20508;-71
2023/12/21 03:15:33;;;;;;;4.47;3.03;;;;;;;;;;5052555;28;20513;-70
2023/12/21 03:18:00;;;;;;;3.60;3.17;;;;;;;;;;5047283;28;20556;-69
2023/12/21 03:20:26;;;;;;;4.50;3.57;;;;;;;;;;5052717;28;20548;-70
2023/12/21 03:22:52;;;;;;;4.10;2.83;;;;;;;;;;5054346;28;20540;-71
2023/12/21 03:25:19;;;;;;;3.30;3.00;;;;;;;;;;5049094;28;21038;-70
2023/12/21 03:27:47;;;;;;;4.07;3.60;;;;;;;;;;5042636;28;20457;-70
2023/12/21 03:30:13;;;;;;;3.50;2.90;;;;;;;;;;5046171;28;20466;-70
2023/12/21 03:32:42;;;;;;;3.57;3.17;;;;;;;;;;5050380;28;20814;-70
2023/12/21 03:35:09;;;;;;;2.97;2.67;;;;;;;;;;5054306;28;20490;-69
2023/12/21 03:37:37;;;;;;;2.50;2.30;;;;;;;;;;5048875;28;20488;-70
2023/12/21 03:40:04;;;;;;;3.00;2.67;;;;;;;;;;5054650;28;20461;-69
2023/12/21 03:42:31;;;;;;;2.40;2.20;;;;;;;;;;5051917;28;20476;-69
2023/12/21 03:44:57;;;;;;;2.50;2.30;;;;;;;;;;5054576;28;20532;-69
2023/12/21 03:47:23;;;;;;;2.70;1.97;;;;;;;;;;5052064;28;20533;-69
2023/12/21 03:49:51;;;;;;;1.67;1.57;;;;;;;;;;5050486;28;20481;-69
2023/12/21 03:52:17;;;;;;;2.47;2.27;;;;;;;;;;5046367;28;20478;-69
2023/12/21 03:54:44;;;;;;;2.30;2.10;;;;;;;;;;5053520;28;20464;-71
2023/12/21 03:57:10;;;;;;;2.80;2.50;;;;;;;;;;5048403;28;20455;-71
2023/12/21 03:59:37;;;;;;;2.33;2.03;;;;;;;;;;5050560;28;20520;-70
2023/12/21 04:02:04;;;;;;;2.43;2.23;;;;;;;;;;5050160;28;20962;-70
2023/12/21 04:04:32;;;;;;;2.90;2.60;;;;;;;;;;5048834;28;20707;-71
2023/12/21 04:06:59;;;;;;;2.70;2.50;;;;;;;;;;5052628;28;20457;-70
2023/12/21 04:09:26;;;;;;;3.40;2.90;;;;;;;;;;5053539;28;20487;-70
2023/12/21 04:11:52;;;;;;;3.27;2.53;;;;;;;;;;5048768;28;20481;-70
2023/12/21 04:14:19;;;;;;;3.77;2.90;;;;;;;;;;5049042;28;20485;-68
2023/12/21 04:16:45;;;;;;;3.70;3.40;;;;;;;;;;5045652;28;20883;-70
2023/12/21 04:19:11;;;;;;;3.63;3.30;;;;;;;;;;5053820;28;20513;-69
2023/12/21 04:21:38;;;;;;;2.70;2.50;;;;;;;;;;5045923;28;20567;-70
2023/12/21 04:24:07;;;;;;;3.40;3.10;;;;;;;;;;5049876;28;20556;-69
2023/12/21 04:26:33;;;;;;;3.27;2.83;;;;;;;;;;5054314;28;20517;-70
2023/12/21 04:28:59;;;;;;;3.60;2.93;;;;;;;;;;5046207;28;20496;-71
2023/12/21 04:31:26;;;;;;;3.50;3.20;;;;;;;;;;5049383;28;20484;-70
2023/12/21 04:33:52;;;;;;;3.57;2.70;;;;;;;;;;5050356;28;20449;-70
2023/12/21 04:36:19;;;;;;;4.80;2.13;;;;;;;;;;5049007;28;20441;-70
2023/12/21 04:38:45;;;;;;;4.23;3.83;;;;;;;;;;5044058;28;20553;-70
2023/12/21 04:41:13;;;;;;;3.40;3.10;;;;;;;;;;5049722;28;21245;-71
2023/12/21 04:43:39;;;;;;;4.53;3.57;;;;;;;;;;5051976;28;20524;-70
2023/12/21 04:46:06;;;;;;;5.10;3.80;;;;;;;;;;5048251;28;20452;-69
2023/12/21 04:48:33;;;;;;;3.97;3.20;;;;;;;;;;5049984;28;20484;-70
2023/12/21 04:50:59;;;;;;;3.60;3.30;;;;;;;;;;5053692;28;20488;-69
2023/12/21 04:53:26;;;;;;;3.73;3.10;;;;;;;;;;5050540;28;20488;-69
2023/12/21 04:55:52;;;;;;;5.13;3.93;;;;;;;;;;5051576;28;20492;-69
2023/12/21 04:58:20;;;;;;;3.53;3.20;;;;;;;;;;5041734;28;20489;-68
2023/12/21 05:00:50;;;;;;;3.90;3.50;;;;;;;;;;5046046;28;20624;-69
2023/12/21 05:03:17;;;;;;;3.57;3.10;;;;;;;;;;5050606;28;20463;-69
2023/12/21 05:05:43;;;;;;;5.27;3.67;;;;;;;;;;5064886;28;20527;-70
2023/12/21 05:08:09;;;;;;;3.63;3.27;;;;;;;;;;5071282;28;20462;-69
2023/12/21 05:10:36;;;;;;;3.60;3.23;;;;;;;;;;5064845;28;21092;-71
2023/12/21 05:13:02;;;;;;;3.20;2.60;;;;;;;;;;5074294;28;20523;-70
2023/12/21 05:15:30;;;;;;;3.63;3.33;;;;;;;;;;5077559;28;20494;-69
2023/12/21 05:17:56;;;;;;;3.80;3.40;;;;;;;;;;5075577;28;20985;-69
2023/12/21 05:20:23;;;;;;;4.13;3.73;;;;;;;;;;5070272;28;20480;-69
2023/12/21 05:22:49;;;;;;;4.17;3.77;;;;;;;;;;5072320;28;20651;-68
2023/12/21 05:25:17;;;;;;;4.27;3.87;;;;;;;;;;5073719;28;20540;-70
2023/12/21 05:27:43;;;;;;;4.47;4.07;;;;;;;;;;5075110;28;20914;-70
2023/12/21 05:30:10;;;;;;;5.70;4.33;;;;;;;;;;5077007;28;20465;-68
2023/12/21 05:32:38;;;;;;;5.23;4.73;;;;;;;;;;5074449;28;20499;-70
2023/12/21 05:35:05;;;;;;;5.33;4.83;;;;;;;;;;5073284;28;20543;-71
2023/12/21 05:37:31;;;;;;;4.93;4.43;;;;;;;;;;5070544;28;20507;-70
2023/12/21 05:39:58;;;;;;;5.00;4.47;;;;;;;;;;5070803;28;20684;-69
2023/12/21 05:42:24;;;;;;;5.23;4.67;;;;;;;;;;5068260;28;20520;-69
2023/12/21 05:44:50;;;;;;;6.00;5.37;;;;;;;;;;5072910;28;20480;-68
2023/12/21 05:47:17;;;;;;;4.70;4.13;;;;;;;;;;5073457;28;20487;-69
2023/12/21 05:49:44;;;;;;;5.33;4.80;;;;;;;;;;5074108;28;20944;-69
2023/12/21 05:52:11;;;;;;;5.37;3.70;;;;;;;;;;5067838;28;20479;-69
2023/12/21 05:54:38;;;;;;;4.33;3.83;;;;;;;;;;5075746;28;20516;-69
2023/12/21 05:57:04;;;;;;;4.87;4.00;;;;;;;;;;5076550;28;20518;-68
2023/12/21 05:59:31;;;;;;;4.23;3.80;;;;;;;;;;5075565;28;20476;-69
2023/12/21 06:01:57;;;;;;;4.00;3.53;;;;;;;;;;5071141;28;20563;-69
2023/12/21 06:04:23;;;;;;;4.70;4.30;;;;;;;;;;5066799;28;21055;-69
2023/12/21 06:06:51;;;;;;;5.13;4.10;;;;;;;;;;5073331;28;20468;-68
2023/12/21 06:09:17;;;;;;;5.33;4.27;;;;;;;;;;5071962;28;20551;-69
2023/12/21 06:11:44;;;;;;;4.73;3.87;;;;;;;;;;5065538;28;20469;-69
2023/12/21 06:14:10;;;;;;;5.20;4.63;;;;;;;;;;5076391;28;20452;-68
2023/12/21 06:16:37;;;;;;;3.83;3.40;;;;;;;;;;5072056;28;20480;-70
2023/12/21 06:19:09;;;;;;;3.90;3.50;;;;;;;;;;5075216;28;20475;-69
2023/12/21 06:21:36;;;;;;;4.60;4.20;;;;;;;;;;5066567;28;20479;-70
2023/12/21 06:24:05;;;;;;;4.10;3.70;;;;;;;;;;5075681;28;20452;-70
2023/12/21 06:26:31;;;;;;;4.13;3.70;;;;;;;;;;5071744;28;20512;-69
2023/12/21 06:28:57;;;;;;;4.70;3.60;;;;;;;;;;5067662;28;20543;-69
2023/12/21 06:31:24;;;;;;;4.20;3.80;;;;;;;;;;5070512;28;20520;-69
2023/12/21 06:33:52;;;;;;;3.67;2.97;;;;;;;;;;5074409;28;20875;-69
2023/12/21 06:36:18;;;;;;;6.70;3.37;;;;;;;;;;5076630;28;20459;-69
2023/12/21 06:38:45;;;;;;;3.10;2.80;;;;;;;;;;5073797;28;20480;-69
2023/12/21 06:41:13;;;;;;;2.93;2.73;;;;;;;;;;5072105;28;20520;-69
2023/12/21 06:43:39;;;;;;;4.13;3.60;;;;;;;;;;5072524;28;21043;-68
2023/12/21 06:46:11;;;;;;;4.63;3.13;;;;;;;;;;5075935;28;20467;-69
2023/12/21 06:48:38;;;;;;;3.00;2.77;;;;;;;;;;5074141;28;20535;-69
2023/12/21 06:51:05;;;;;;;3.40;3.10;;;;;;;;;;5074076;28;20464;-67
2023/12/21 06:53:31;;;;;;;4.00;3.60;;;;;;;;;;5071918;28;20501;-68
2023/12/21 06:55:57;;;;;;;2.90;2.40;;;;;;;;;;5075781;28;20551;-68
2023/12/21 06:58:27;;;;;;;3.70;3.07;;;;;;;;;;5070561;28;20523;-68
2023/12/21 07:00:53;;;;;;;3.50;2.90;;;;;;;;;;5074816;28;20492;-69
2023/12/21 07:03:22;;;;;;;5.07;3.60;;;;;;;;;;5065306;28;20918;-67
2023/12/21 07:05:50;;;;;;;3.70;3.10;;;;;;;;;;5061452;28;20488;-68
2023/12/21 07:08:16;;;;;;;3.63;3.33;;;;;;;;;;5055165;28;21064;-71
2023/12/21 07:10:43;;;;;;;3.80;3.50;;;;;;;;;;5056068;28;20522;-69
2023/12/21 07:13:09;;;;;;;3.83;3.33;;;;;;;;;;5055105;28;21170;-70
2023/12/21 07:15:37;;;;;;;3.67;3.37;;;;;;;;;;5046296;28;20963;-70
2023/12/21 07:18:04;;;;;;;4.50;3.60;;;;;;;;;;5055809;28;20495;-69
2023/12/21 07:20:31;;;;;;;2.60;2.40;;;;;;;;;;5055805;28;20539;-68
2023/12/21 07:22:57;;;;;;;3.13;2.83;;;;;;;;;;5048773;28;20539;-69
2023/12/21 07:25:24;;;;;;;3.47;3.17;;;;;;;;;;5049816;28;20477;-69
2023/12/21 07:27:50;;;;;;;3.00;2.70;;;;;;;;;;5056678;28;20493;-68
2023/12/21 07:30:17;;;;;;;3.50;2.97;;;;;;;;;;5059090;28;20468;-69
2023/12/21 07:32:45;;;;;;;3.40;2.80;;;;;;;;;;5052981;28;20470;-71
2023/12/21 07:35:12;;;;;;;3.50;3.20;;;;;;;;;;5055647;28;20917;-70
2023/12/21 07:37:38;;;;;;;3.20;2.90;;;;;;;;;;5050547;28;20449;-69
2023/12/21 07:40:05;;;;;;;3.80;3.50;;;;;;;;;;5055085;28;20491;-68
2023/12/21 07:42:32;;;;;;;5.00;3.90;;;;;;;;;;5054219;28;21294;-68
2023/12/21 07:44:58;;;;;;;4.60;4.20;;;;;;;;;;5050398;28;20505;-68
2023/12/21 07:47:24;;;;;;;4.67;4.07;;;;;;;;;;5049019;28;20544;-68
2023/12/21 07:49:52;;;;;;;5.63;4.67;;;;;;;;;;5055626;28;20476;-68
2023/12/21 07:52:19;;;;;;;5.03;3.83;;;;;;;;;;5055362;28;20479;-68
2023/12/21 07:54:45;;;;;;;4.80;3.90;;;;;;;;;;5051223;28;20484;-68
2023/12/21 07:57:12;;;;;;;5.63;4.30;;;;;;;;;;5041103;28;20505;-70
2023/12/21 07:59:39;;;;;;;5.00;4.10;;;;;;;;;;5054078;28;20500;-69
2023/12/21 08:02:05;;;;;;;4.27;3.60;;;;;;;;;;5053209;28;20477;-68
2023/12/21 08:04:32;;;;;;;4.90;4.27;;;;;;;;;;5053940;28;20480;-68
2023/12/21 08:07:00;;;;;;;5.07;4.47;;;;;;;;;;5072286;28;20448;-68
2023/12/21 08:09:27;;;;;;;6.27;4.50;;;;;;;;;;5073486;28;20543;-69
2023/12/21 08:11:53;;;;;;;5.70;3.77;;;;;;;;;;5073338;28;20467;-69
2023/12/21 08:14:20;;;;;;;7.10;5.00;;;;;;;;;;5075132;28;20976;-67
2023/12/21 08:16:46;;;;;;;6.70;4.57;;;;;;;;;;5070806;28;21004;-69
2023/12/21 08:19:13;;;;;;;5.73;4.23;;;;;;;;;;5074153;28;20480;-69
2023/12/21 08:21:39;;;;;;;5.27;4.77;;;;;;;;;;5069506;28;20472;-69
2023/12/21 08:24:07;;;;;;;8.80;4.90;;;;;;;;;;5072365;28;20456;-69
2023/12/21 08:26:33;;;;;;;4.77;3.50;;;;;;;;;;5072755;28;20508;-68
2023/12/21 08:29:01;;;;;;;9.77;4.90;;;;;;;;;;5070080;28;20488;-68
2023/12/21 08:31:27;;;;;;;13.20;4.83;;;;;;;;;;5072613;28;20534;-67
2023/12/21 08:33:54;;;;;;;5.20;3.70;;;;;;;;;;5070341;28;20480;-69
2023/12/21 08:36:20;;;;;;;8.43;3.57;;;;;;;;;;5070153;28;20465;-68
2023/12/21 08:38:47;;;;;;;5.10;3.70;;;;;;;;;;5072009;28;20487;-68
2023/12/21 08:41:14;;;;;;;7.77;2.83;;;;;;;;;;5073417;28;20494;-68
2023/12/21 08:43:41;;;;;;;4.77;3.30;;;;;;;;;;5076207;28;20519;-68
2023/12/21 08:46:07;;;;;;;5.43;3.47;;;;;;;;;;5080324;28;20471;-68
2023/12/21 08:48:34;;;;;;;3.40;2.80;;;;;;;;;;5079471;28;20459;-68
2023/12/21 08:51:00;;;;;;;2.63;2.40;;;;;;;;;;5079842;28;20479;-69
2023/12/21 08:53:26;;;;;;;3.80;2.00;;;;;;;;;;5078844;28;20470;-70
2023/12/21 08:55:53;;;;;;;2.93;2.63;;;;;;;;;;5078980;28;20490;-70
2023/12/21 08:58:21;;;;;;;3.37;2.23;;;;;;;;;;5070312;28;20460;-71
2023/12/21 09:00:47;;;;;;;2.40;2.20;;;;;;;;;;5079502;28;21470;-72
2023/12/21 09:03:14;;;;;;;2.47;2.00;;;;;;;;;;5078975;28;20547;-71
2023/12/21 09:05:40;;;;;;;3.37;2.60;;;;;;;;;;5066100;28;20523;-74
2023/12/21 09:08:07;;;;;;;6.03;2.00;;;;;;;;;;5059282;28;20477;-70
2023/12/21 09:10:33;;;;;;;2.10;1.90;;;;;;;;;;5059695;28;20453;-74
2023/12/21 09:13:00;;;;;;;3.33;2.33;;;;;;;;;;5058213;28;20520;-71
2023/12/21 09:15:28;;;;;;;3.20;2.10;;;;;;;;;;5051470;28;20518;-68
2023/12/21 09:17:55;;;;;;;2.57;2.00;;;;;;;;;;5055842;28;20461;-66
2023/12/21 09:20:21;;;;;;;2.43;2.10;;;;;;;;;;5056229;28;21328;-66
2023/12/21 09:22:47;;;;;;;2.60;2.20;;;;;;;;;;5056644;28;20504;-67
2023/12/21 09:25:14;;;;;;;2.33;2.03;;;;;;;;;;5054506;28;20803;-71
2023/12/21 09:27:40;;;;;;;2.73;2.17;;;;;;;;;;5057738;28;20560;-68
2023/12/21 09:30:09;;;;;;;3.20;2.20;;;;;;;;;;5058220;28;20492;-74
2023/12/21 09:32:39;;;;;;;1.87;1.73;;;;;;;;;;5049787;28;20466;-75
2023/12/21 09:35:06;;;;;;;2.20;2.00;;;;;;;;;;5053302;28;20561;-83
2023/12/21 09:37:32;;;;;;;2.37;1.90;;;;;;;;;;5051746;28;20843;-78
2023/12/21 09:39:59;;;;;;;1.90;1.80;;;;;;;;;;5051628;28;20461;-70
2023/12/21 09:42:27;;;;;;;2.77;2.27;;;;;;;;;;5047828;28;20505;-77
2023/12/21 09:44:54;;;;;;;3.37;2.40;;;;;;;;;;5050077;28;20496;-76
2023/12/21 09:47:22;;;;;;;2.30;1.80;;;;;;;;;;5052812;28;20540;-77
2023/12/21 09:49:50;;;;;;;2.03;1.83;;;;;;;;;;5049484;28;20471;-69
2023/12/21 09:52:17;;;;;;;3.17;2.00;;;;;;;;;;5053372;28;20491;-72
2023/12/21 09:54:45;;;;;;;3.23;2.33;;;;;;;;;;5057433;28;20520;-75
2023/12/21 09:57:12;;;;;;;2.10;1.90;;;;;;;;;;5057570;28;20460;-73
2023/12/21 09:59:39;;;;;;;1.80;1.70;;;;;;;;;;5057916;28;20476;-77
2023/12/21 10:02:11;;;;;;;1.50;1.30;;;;;;;;;;5057254;28;20495;-75
2023/12/21 10:04:40;;;;;;;1.93;1.60;;;;;;;;;;5056399;28;20499;-75
2023/12/21 10:07:09;;;;;;;1.80;1.70;;;;;;;;;;5046924;28;20514;-75
2023/12/21 10:09:36;;;;;;;2.93;1.70;;;;;;;;;;5050926;28;20465;-75
2023/12/21 10:12:02;;;;;;;2.50;1.83;;;;;;;;;;5050944;28;20538;-78
2023/12/21 10:14:29;;;;;;;1.63;1.53;;;;;;;;;;5048979;28;20484;-77
2023/12/21 10:16:56;;;;;;;4.50;1.83;;;;;;;;;;5054425;28;20475;-72
2023/12/21 10:19:22;;;;;;;1.73;1.60;;;;;;;;;;5053484;28;20485;-76
2023/12/21 10:21:49;;;;;;;1.57;1.47;;;;;;;;;;5054987;28;20815;-77
2023/12/21 10:24:17;;;;;;;1.40;1.30;;;;;;;;;;5053340;28;20496;-76
2023/12/21 10:26:44;;;;;;;2.13;1.90;;;;;;;;;;5056029;28;20528;-77
2023/12/21 10:29:13;;;;;;;1.53;1.43;;;;;;;;;;5054522;28;20461;-72
2023/12/21 10:31:43;;;;;;;1.43;1.33;;;;;;;;;;5054282;28;20472;-81
2023/12/21 10:34:09;;;;;;;1.17;1.07;;;;;;;;;;5053921;28;20453;-72
2023/12/21 10:36:38;;;;;;;1.03;0.93;;;;;;;;;;5053261;28;20484;-75
2023/12/21 10:39:05;;;;;;;1.40;1.30;;;;;;;;;;5054797;28;20492;-76
2023/12/21 10:41:33;;;;;;;1.30;1.20;;;;;;;;;;5051736;28;20456;-77
2023/12/21 10:44:00;;;;;;;1.60;1.33;;;;;;;;;;5055441;28;20532;-72
2023/12/21 10:46:30;;;;;;;1.07;0.97;;;;;;;;;;5046653;28;20454;-74
2023/12/21 10:48:59;;;;;;;0.90;0.90;;;;;;;;;;5046820;28;20468;-71
2023/12/21 10:51:26;;;;;;;1.37;1.27;;;;;;;;;;5055338;28;20468;-78
2023/12/21 10:53:53;;;;;;;0.97;0.80;;;;;;;;;;5056221;28;20457;-73
2023/12/21 10:56:21;;;;;;;2.40;1.27;;;;;;;;;;5056038;28;20464;-74
2023/12/21 10:58:49;;;;;;;2.50;1.27;;;;;;;;;;5055927;28;20534;-70
2023/12/21 11:01:15;;;;;;;1.30;1.20;;;;;;;;;;5051623;28;20528;-81
2023/12/21 11:03:42;;;;;;;1.30;1.20;;;;;;;;;;5056210;28;20508;-77
2023/12/21 11:06:09;;;;;;;0.80;0.80;;;;;;;;;;5047340;28;20482;-76
2023/12/21 11:08:37;;;;;;;1.30;1.20;;;;;;;;;;5040893;28;20434;-79
2023/12/21 11:11:04;;;;;;;1.30;1.20;;;;;;;;;;5055190;28;21457;-78
2023/12/21 11:13:31;;;;;;;1.40;1.07;;;;;;;;;;5052108;28;20516;-76
2023/12/21 11:15:59;;;;;;;2.10;0.90;;;;;;;;;;5053189;28;20448;-70
2023/12/21 11:18:26;;;;;;;2.00;1.80;;;;;;;;;;5048055;28;20533;-73
2023/12/21 11:20:55;;;;;;;1.47;1.37;;;;;;;;;;5054309;28;20916;-74
2023/12/21 11:23:22;;;;;;;3.03;1.10;;;;;;;;;;5047433;28;20596;-79
2023/12/21 11:25:54;;;;;;;0.90;0.90;;;;;;;;;;5047932;28;20493;-81
2023/12/21 11:28:24;;;;;;;1.00;1.00;;;;;;;;;;5050682;28;20524;-74
2023/12/21 11:30:51;;;;;;;1.20;1.10;;;;;;;;;;5047921;28;20496;-81
2023/12/21 11:33:27;;;;;;;1.40;1.23;;;;;;;;;;5055840;28;20452;-75
2023/12/21 11:35:54;;;;;;;0.90;0.90;;;;;;;;;;5055931;28;20551;-76
2023/12/21 11:38:24;;;;;;;1.00;1.00;;;;;;;;;;5053347;28;20451;-71
2023/12/21 11:40:50;;;;;;;1.13;0.73;;;;;;;;;;5045226;28;20458;-71
2023/12/21 11:43:20;;;;;;;2.10;1.27;;;;;;;;;;5046403;28;21087;-71
2023/12/21 11:45:48;;;;;;;1.30;1.20;;;;;;;;;;5046777;28;20971;-71
2023/12/21 11:48:16;;;;;;;4.30;0.90;;;;;;;;;;5052544;28;20487;-73
2023/12/21 11:50:45;;;;;;;1.20;0.93;;;;;;;;;;5050734;28;21223;-71
2023/12/21 11:53:12;;;;;;;1.00;0.90;;;;;;;;;;5055717;28;20453;-72
2023/12/21 11:55:39;;;;;;;1.40;1.03;;;;;;;;;;5047088;28;20831;-71
2023/12/21 11:58:10;;;;;;;1.13;1.00;;;;;;;;;;5054350;28;20467;-71
2023/12/21 12:00:43;;;;;;;1.20;1.10;;;;;;;;;;5052441;28;20464;-80
2023/12/21 12:03:10;;;;;;;1.53;1.10;;;;;;;;;;5049206;28;20560;-79
2023/12/21 12:05:36;;;;;;;1.20;1.10;;;;;;;;;;5049283;28;20599;-79
2023/12/21 12:08:04;;;;;;;2.50;1.63;;;;;;;;;;5050653;28;20445;-79
2023/12/21 12:10:32;;;;;;;1.93;1.10;;;;;;;;;;5053869;28;20485;-78
2023/12/21 12:13:00;;;;;;;1.73;1.03;;;;;;;;;;5051572;28;20486;-79
2023/12/21 12:15:26;;;;;;;1.27;1.17;;;;;;;;;;5048201;28;20465;-77
2023/12/21 12:17:52;;;;;;;5.10;1.40;;;;;;;;;;5052011;28;20512;-79
2023/12/21 12:20:20;;;;;;;2.20;1.27;;;;;;;;;;5052842;28;20968;-81
2023/12/21 12:22:46;;;;;;;1.03;0.93;;;;;;;;;;5044524;28;20467;-80
2023/12/21 12:25:17;;;;;;;1.20;1.10;;;;;;;;;;5044635;28;20484;-78
2023/12/21 12:27:44;;;;;;;3.20;1.50;;;;;;;;;;5042934;28;20579;-81
2023/12/21 12:30:12;;;;;;;2.00;1.10;;;;;;;;;;5043202;28;20792;-76
2023/12/21 12:32:38;;;;;;;2.83;1.40;;;;;;;;;;5046292;28;20519;-73
2023/12/21 12:35:06;;;;;;;1.57;1.10;;;;;;;;;;5047709;28;20450;-73
2023/12/21 12:37:33;;;;;;;1.20;1.10;;;;;;;;;;5039008;28;20449;-80
2023/12/21 12:39:58;;;;;;;6.43;1.17;;;;;;;;;;5044676;28;20483;-78
2023/12/21 12:42:27;;;;;;;1.80;1.00;;;;;;;;;;5044940;28;20452;-75
2023/12/21 12:44:53;;;;;;;1.83;1.10;;;;;;;;;;5052894;28;20248;-78
2023/12/21 12:47:21;;;;;;;1.50;1.00;;;;;;;;;;5047453;28;21023;-78
2023/12/21 12:49:47;;;;;;;1.03;0.90;;;;;;;;;;5046854;28;20452;-75
2023/12/21 12:52:17;;;;;;;1.20;0.90;;;;;;;;;;5051378;28;20471;-79
2023/12/21 12:54:43;;;;;;;1.30;1.00;;;;;;;;;;5050203;28;20483;-78
2023/12/21 12:57:11;;;;;;;1.30;1.20;;;;;;;;;;5050892;28;20468;-78
2023/12/21 12:59:39;;;;;;;1.90;0.90;;;;;;;;;;5052590;28;20457;-80
2023/12/21 13:02:05;;;;;;;1.23;1.00;;;;;;;;;;5052182;28;20498;-75
2023/12/21 13:04:32;;;;;;;9.60;1.93;;;;;;;;;;5054380;28;20540;-79
2023/12/21 13:06:58;;;;;;;4.33;1.17;;;;;;;;;;5064022;28;20453;-79
2023/12/21 13:09:26;;;;;;;3.90;1.30;;;;;;;;;;5066959;28;20459;-79
2023/12/21 13:11:52;;;;;;;1.30;1.20;;;;;;;;;;5071685;28;20440;-79
2023/12/21 13:14:19;;;;;;;1.53;1.20;;;;;;;;;;5071779;28;20542;-81
2023/12/21 13:16:47;;;;;;;3.23;1.10;;;;;;;;;;5072028;28;20448;-81
2023/12/21 13:19:13;;;;;;;1.27;1.17;;;;;;;;;;5072046;28;20481;-82
2023/12/21 13:21:40;;;;;;;4.13;1.33;;;;;;;;;;5067821;28;20435;-78
2023/12/21 13:24:06;;;;;;;3.17;1.17;;;;;;;;;;5067033;28;20640;-74
2023/12/21 13:26:33;;;;;;;1.50;1.40;;;;;;;;;;5071083;28;20468;-73
2023/12/21 13:28:59;;;;;;;2.90;1.37;;;;;;;;;;5071468;28;20456;-81
2023/12/21 13:31:26;;;;;;;4.73;1.27;;;;;;;;;;5070628;28;20464;-78
2023/12/21 13:33:54;;;;;;;3.10;1.50;;;;;;;;;;5066662;28;20455;-82
2023/12/21 13:36:21;;;;;;;1.63;1.30;;;;;;;;;;5074752;28;20440;-81
2023/12/21 13:38:47;;;;;;;2.93;1.50;;;;;;;;;;5075358;28;20482;-84
2023/12/21 13:41:14;;;;;;;10.10;1.73;;;;;;;;;;5068723;28;20461;-82
2023/12/21 13:43:42;;;;;;;5.00;1.70;;;;;;;;;;5067123;28;20479;-82
2023/12/21 13:46:09;;;;;;;3.77;1.30;;;;;;;;;;5063732;28;21051;-81
2023/12/21 13:48:36;;;;;;;4.57;1.47;;;;;;;;;;5074686;28;20500;-80
2023/12/21 13:51:04;;;;;;;4.83;2.03;;;;;;;;;;5074651;28;21028;-79
2023/12/21 13:53:31;;;;;;;2.20;1.30;;;;;;;;;;5072602;28;20445;-83
2023/12/21 13:55:57;;;;;;;4.27;2.00;;;;;;;;;;5073596;28;20455;-84
2023/12/21 13:58:24;;;;;;;3.60;1.60;;;;;;;;;;5072326;28;20486;-77
2023/12/21 14:00:51;;;;;;;4.80;2.50;;;;;;;;;;5073624;28;20565;-76
2023/12/21 14:03:18;;;;;;;1.83;1.20;;;;;;;;;;5069111;28;20533;-76
2023/12/21 14:05:44;;;;;;;2.17;1.33;;;;;;;;;;5071274;28;20512;-76
2023/12/21 14:08:14;;;;;;;4.03;1.10;;;;;;;;;;5075106;28;20444;-77
2023/12/21 14:10:41;;;;;;;2.97;1.63;;;;;;;;;;5070771;28;20455;-76
2023/12/21 14:13:07;;;;;;;4.97;2.07;;;;;;;;;;5075504;28;20468;-76
2023/12/21 14:15:35;;;;;;;2.70;1.60;;;;;;;;;;5072947;28;20487;-76
2023/12/21 14:18:02;;;;;;;3.50;2.33;;;;;;;;;;5073493;28;20515;-76
2023/12/21 14:20:28;;;;;;;3.77;1.70;;;;;;;;;;5076421;28;20460;-76
2023/12/21 14:22:55;;;;;;;4.10;1.50;;;;;;;;;;5076093;28;20456;-76
2023/12/21 14:25:23;;;;;;;5.90;1.93;;;;;;;;;;5076058;28;20571;-77
2023/12/21 14:27:49;;;;;;;4.60;2.20;;;;;;;;;;5075960;28;20481;-76
2023/12/21 14:30:16;;;;;;;7.57;2.20;;;;;;;;;;5074656;28;20463;-76
2023/12/21 14:32:44;;;;;;;8.60;2.50;;;;;;;;;;5073240;28;20452;-77
2023/12/21 14:35:10;;;;;;;8.50;2.40;;;;;;;;;;5076135;28;20456;-77
2023/12/21 14:37:37;;;;;;;6.23;2.33;;;;;;;;;;5075764;28;20460;-76
2023/12/21 14:40:04;;;;;;;4.70;1.80;;;;;;;;;;5074466;28;20460;-77
2023/12/21 14:42:32;;;;;;;3.30;1.77;;;;;;;;;;5075647;28;20447;-76